Terminal Aerodrome Forecast
Issued by NWS

Home | Current Version | Previous Version | Text Only | Print | Product List | Glossary On
Versions: 1 2 3 4 5 6 7 8 9 10 11 12 13 14 15 16 17 18 19 20 21 22 23 24 25 26 27 28 29 30 31 32 33 34 35 36 37 38 39 40 41 42 43 44 45 46 47 48 49 50
000
FTUS41 KCTP 191137
TAFJST
TAF
KJST 191137Z 1912/2012 09008G15KT P6SM BKN250
     FM191500 12013G20KT P6SM FEW040 BKN200
     FM191800 13015G25KT P6SM SCT040 OVC090
     FM200000 14015G27KT 2SM -RA BR OVC010 WS020/15055KT
     FM200400 13015G27KT 1SM -RA BR OVC006 WS020/14060KT=

USA.gov is the U.S. government's official web portal to all federal, state and local government web resources and services.